首页
METAR-TAF:

METAR-TAF

机场 :

黑潭, 英格兰

纬度: 53-46N, 经度: 003-02W, 海拔: 10米

当前天气观测

该预报发布于1小时和0分钟前的11:50 UTC
风速7节,风向北转东北
温度 13°C
湿度 82%
气压 999 hPa
能见度10公里或以上
少量云层高于1300英尺
散云层高于2500英尺

METAR: EGNH 231150Z 03007KT 9999 FEW013 SCT025 13/10 Q0999

时间: 13:50 (12:50 UTC)

预报

该预报发布于1小时和52分钟前的10:58 UTC
预报有效从23日的 12点(UTC)到 23日的 20点(UTC)
风速7节,风向北转东北
能见度10公里或以上
散云层高于3000英尺
几率 40% :
短暂存在
从 23日的 12点(UTC)到 23日的 20点(UTC)
能見度: 6000
多云层高于1200英尺
阵雨

TAF: EGNH 231058Z 2312/2320 03007KT 9999 SCT030 PROB40 TEMPO 2312/2320 6000 SHRA BKN012

超过4000个机场的气象观测和天气预报(METAR&TAF报告)。

可查询的气象台以黄色和红色小点在地图上表示。

将鼠标移到小点上方,可查看气象台名称。

然后点击查看天气观测和预报。

如需切换地图:点击带黑十字的绿色按钮放大地图;点击带横线的绿色按钮缩小地图;或者点击绿色箭头查看邻近地区的地图。


METAR-TAF: